sensor_id;sensor_type;location;lat;lon;timestamp;P1;durP1;ratioP1;P2;durP2;ratioP2
35128;SDS011;21301;43.626;10.580;2022-11-12T00:00:47;13.75;;;7.18;;
35128;SDS011;21301;43.626;10.580;2022-11-12T00:03:32;23.98;;;12.07;;
35128;SDS011;21301;43.626;10.580;2022-11-12T00:06:16;14.82;;;6.78;;
35128;SDS011;21301;43.626;10.580;2022-11-12T00:09:00;11.73;;;7.53;;
35128;SDS011;21301;43.626;10.580;2022-11-12T00:11:45;15.15;;;7.63;;
35128;SDS011;21301;43.626;10.580;2022-11-12T00:14:29;14.30;;;7.55;;
35128;SDS011;21301;43.626;10.580;2022-11-12T00:17:13;14.07;;;6.45;;
35128;SDS011;21301;43.626;10.580;2022-11-12T00:19:57;12.18;;;7.07;;
35128;SDS011;21301;43.626;10.580;2022-11-12T00:22:41;11.90;;;6.25;;
35128;SDS011;21301;43.626;10.580;2022-11-12T00:25:26;10.07;;;5.95;;
35128;SDS011;21301;43.626;10.580;2022-11-12T00:28:11;10.80;;;5.65;;
35128;SDS011;21301;43.626;10.580;2022-11-12T00:30:55;11.00;;;6.55;;
35128;SDS011;21301;43.626;10.580;2022-11-12T00:33:40;10.85;;;6.45;;
35128;SDS011;21301;43.626;10.580;2022-11-12T00:36:25;9.65;;;5.43;;
35128;SDS011;21301;43.626;10.580;2022-11-12T00:39:09;9.70;;;5.65;;
35128;SDS011;21301;43.626;10.580;2022-11-12T00:41:54;8.88;;;4.75;;
35128;SDS011;21301;43.626;10.580;2022-11-12T00:44:38;8.40;;;5.05;;
35128;SDS011;21301;43.626;10.580;2022-11-12T00:47:22;8.57;;;4.45;;
35128;SDS011;21301;43.626;10.580;2022-11-12T00:50:07;8.68;;;5.00;;
35128;SDS011;21301;43.626;10.580;2022-11-12T00:52:52;9.90;;;4.18;;
35128;SDS011;21301;43.626;10.580;2022-11-12T00:55:36;8.15;;;4.55;;
35128;SDS011;21301;43.626;10.580;2022-11-12T00:58:20;7.93;;;3.95;;
35128;SDS011;21301;43.626;10.580;2022-11-12T01:01:05;7.32;;;4.45;;
35128;SDS011;21301;43.626;10.580;2022-11-12T01:03:56;7.57;;;3.58;;
35128;SDS011;21301;43.626;10.580;2022-11-12T01:06:41;8.52;;;4.80;;
35128;SDS011;21301;43.626;10.580;2022-11-12T01:09:25;7.93;;;4.40;;
35128;SDS011;21301;43.626;10.580;2022-11-12T01:15:13;7.93;;;4.95;;
35128;SDS011;21301;43.626;10.580;2022-11-12T01:17:57;10.52;;;6.28;;
35128;SDS011;21301;43.626;10.580;2022-11-12T01:20:41;9.60;;;5.13;;
35128;SDS011;21301;43.626;10.580;2022-11-12T01:26:11;10.43;;;5.05;;
35128;SDS011;21301;43.626;10.580;2022-11-12T01:28:57;8.98;;;4.65;;
35128;SDS011;21301;43.626;10.580;2022-11-12T01:31:41;7.90;;;4.40;;
35128;SDS011;21301;43.626;10.580;2022-11-12T01:34:25;9.88;;;4.85;;
35128;SDS011;21301;43.626;10.580;2022-11-12T01:39:53;8.80;;;4.85;;
35128;SDS011;21301;43.626;10.580;2022-11-12T01:42:37;6.43;;;4.50;;
35128;SDS011;21301;43.626;10.580;2022-11-12T01:45:22;8.40;;;4.95;;
35128;SDS011;21301;43.626;10.580;2022-11-12T01:48:06;12.43;;;6.22;;
35128;SDS011;21301;43.626;10.580;2022-11-12T01:51:04;11.60;;;5.80;;
35128;SDS011;21301;43.626;10.580;2022-11-12T01:53:50;11.55;;;6.25;;
35128;SDS011;21301;43.626;10.580;2022-11-12T01:56:38;9.23;;;5.90;;
35128;SDS011;21301;43.626;10.580;2022-11-12T01:59:24;7.90;;;4.47;;
35128;SDS011;21301;43.626;10.580;2022-11-12T02:02:15;8.93;;;5.05;;
35128;SDS011;21301;43.626;10.580;2022-11-12T02:05:00;8.02;;;4.57;;
35128;SDS011;21301;43.626;10.580;2022-11-12T02:07:47;6.60;;;3.95;;
35128;SDS011;21301;43.626;10.580;2022-11-12T02:10:33;6.43;;;4.40;;
35128;SDS011;21301;43.626;10.580;2022-11-12T02:13:18;7.63;;;4.43;;
35128;SDS011;21301;43.626;10.580;2022-11-12T02:16:21;7.05;;;4.38;;
35128;SDS011;21301;43.626;10.580;2022-11-12T02:19:08;10.57;;;5.75;;
35128;SDS011;21301;43.626;10.580;2022-11-12T02:21:54;7.47;;;4.50;;
35128;SDS011;21301;43.626;10.580;2022-11-12T02:24:38;8.23;;;4.32;;
35128;SDS011;21301;43.626;10.580;2022-11-12T02:27:22;6.30;;;4.03;;
35128;SDS011;21301;43.626;10.580;2022-11-12T02:30:07;6.82;;;3.90;;
35128;SDS011;21301;43.626;10.580;2022-11-12T02:32:51;7.80;;;4.68;;
35128;SDS011;21301;43.626;10.580;2022-11-12T02:35:35;6.55;;;4.10;;
35128;SDS011;21301;43.626;10.580;2022-11-12T02:38:20;6.28;;;3.38;;
35128;SDS011;21301;43.626;10.580;2022-11-12T02:41:04;8.18;;;4.03;;
35128;SDS011;21301;43.626;10.580;2022-11-12T02:43:48;7.43;;;3.60;;
35128;SDS011;21301;43.626;10.580;2022-11-12T02:46:32;6.32;;;3.83;;
35128;SDS011;21301;43.626;10.580;2022-11-12T02:49:17;6.38;;;3.72;;
35128;SDS011;21301;43.626;10.580;2022-11-12T02:52:01;7.25;;;2.95;;
35128;SDS011;21301;43.626;10.580;2022-11-12T02:54:46;12.10;;;4.35;;
35128;SDS011;21301;43.626;10.580;2022-11-12T02:57:30;7.43;;;4.25;;
35128;SDS011;21301;43.626;10.580;2022-11-12T03:02:58;7.28;;;4.43;;
35128;SDS011;21301;43.626;10.580;2022-11-12T03:05:43;5.97;;;3.58;;
35128;SDS011;21301;43.626;10.580;2022-11-12T03:08:28;8.27;;;3.67;;
35128;SDS011;21301;43.626;10.580;2022-11-12T03:11:13;8.23;;;4.65;;
35128;SDS011;21301;43.626;10.580;2022-11-12T03:14:00;8.43;;;4.57;;
35128;SDS011;21301;43.626;10.580;2022-11-12T03:16:45;5.85;;;3.28;;
35128;SDS011;21301;43.626;10.580;2022-11-12T03:19:29;8.55;;;4.28;;
35128;SDS011;21301;43.626;10.580;2022-11-12T03:22:13;5.82;;;3.05;;
35128;SDS011;21301;43.626;10.580;2022-11-12T03:24:57;7.95;;;2.97;;
35128;SDS011;21301;43.626;10.580;2022-11-12T03:27:41;6.38;;;3.05;;
35128;SDS011;21301;43.626;10.580;2022-11-12T03:30:26;5.93;;;3.17;;
35128;SDS011;21301;43.626;10.580;2022-11-12T03:33:13;6.72;;;2.80;;
35128;SDS011;21301;43.626;10.580;2022-11-12T03:35:58;5.28;;;3.08;;
35128;SDS011;21301;43.626;10.580;2022-11-12T03:38:42;5.55;;;2.92;;
35128;SDS011;21301;43.626;10.580;2022-11-12T03:41:26;5.68;;;3.20;;
35128;SDS011;21301;43.626;10.580;2022-11-12T03:44:11;5.70;;;3.33;;
35128;SDS011;21301;43.626;10.580;2022-11-12T03:46:55;7.30;;;3.78;;
35128;SDS011;21301;43.626;10.580;2022-11-12T03:49:39;6.07;;;3.58;;
35128;SDS011;21301;43.626;10.580;2022-11-12T03:52:23;6.05;;;3.38;;
35128;SDS011;21301;43.626;10.580;2022-11-12T03:55:07;7.55;;;3.80;;
35128;SDS011;21301;43.626;10.580;2022-11-12T03:57:52;5.55;;;3.10;;
35128;SDS011;21301;43.626;10.580;2022-11-12T04:04:03;6.63;;;3.45;;
35128;SDS011;21301;43.626;10.580;2022-11-12T04:06:47;6.07;;;3.45;;
35128;SDS011;21301;43.626;10.580;2022-11-12T04:09:50;6.80;;;3.70;;
35128;SDS011;21301;43.626;10.580;2022-11-12T04:12:35;6.38;;;3.50;;
35128;SDS011;21301;43.626;10.580;2022-11-12T04:15:38;8.23;;;3.50;;
35128;SDS011;21301;43.626;10.580;2022-11-12T04:18:22;6.32;;;3.50;;
35128;SDS011;21301;43.626;10.580;2022-11-12T04:21:43;9.50;;;3.15;;
35128;SDS011;21301;43.626;10.580;2022-11-12T04:24:36;6.65;;;3.53;;
35128;SDS011;21301;43.626;10.580;2022-11-12T04:27:44;7.40;;;3.80;;
35128;SDS011;21301;43.626;10.580;2022-11-12T04:30:28;5.65;;;3.70;;
35128;SDS011;21301;43.626;10.580;2022-11-12T04:33:12;5.85;;;2.90;;
35128;SDS011;21301;43.626;10.580;2022-11-12T04:35:57;6.00;;;2.85;;
35128;SDS011;21301;43.626;10.580;2022-11-12T04:38:41;11.68;;;6.32;;
35128;SDS011;21301;43.626;10.580;2022-11-12T04:41:26;6.50;;;3.30;;
35128;SDS011;21301;43.626;10.580;2022-11-12T04:44:29;5.85;;;3.10;;
35128;SDS011;21301;43.626;10.580;2022-11-12T04:47:34;6.32;;;3.28;;
35128;SDS011;21301;43.626;10.580;2022-11-12T04:50:20;5.95;;;2.95;;
35128;SDS011;21301;43.626;10.580;2022-11-12T04:53:04;6.60;;;2.92;;
35128;SDS011;21301;43.626;10.580;2022-11-12T04:55:49;5.78;;;3.30;;
35128;SDS011;21301;43.626;10.580;2022-11-12T04:58:35;8.95;;;4.55;;
35128;SDS011;21301;43.626;10.580;2022-11-12T05:01:19;8.95;;;3.28;;
35128;SDS011;21301;43.626;10.580;2022-11-12T05:04:04;9.43;;;3.25;;
35128;SDS011;21301;43.626;10.580;2022-11-12T05:06:49;5.68;;;3.20;;
35128;SDS011;21301;43.626;10.580;2022-11-12T05:09:36;6.05;;;3.50;;
35128;SDS011;21301;43.626;10.580;2022-11-12T05:12:21;6.53;;;3.85;;
35128;SDS011;21301;43.626;10.580;2022-11-12T05:15:05;6.82;;;4.15;;
35128;SDS011;21301;43.626;10.580;2022-11-12T05:17:50;8.48;;;4.30;;
35128;SDS011;21301;43.626;10.580;2022-11-12T05:20:35;14.50;;;8.68;;
35128;SDS011;21301;43.626;10.580;2022-11-12T05:23:20;6.88;;;3.40;;
35128;SDS011;21301;43.626;10.580;2022-11-12T05:26:04;7.40;;;3.30;;
35128;SDS011;21301;43.626;10.580;2022-11-12T05:28:48;11.10;;;5.18;;
35128;SDS011;21301;43.626;10.580;2022-11-12T05:31:33;7.93;;;4.25;;
35128;SDS011;21301;43.626;10.580;2022-11-12T05:34:18;14.25;;;6.68;;
35128;SDS011;21301;43.626;10.580;2022-11-12T05:37:03;14.38;;;6.45;;
35128;SDS011;21301;43.626;10.580;2022-11-12T05:39:48;17.10;;;9.50;;
35128;SDS011;21301;43.626;10.580;2022-11-12T05:42:32;8.32;;;4.03;;
35128;SDS011;21301;43.626;10.580;2022-11-12T05:45:17;7.82;;;3.15;;
35128;SDS011;21301;43.626;10.580;2022-11-12T05:48:01;5.82;;;3.00;;
35128;SDS011;21301;43.626;10.580;2022-11-12T05:50:48;16.35;;;5.82;;
35128;SDS011;21301;43.626;10.580;2022-11-12T05:53:33;11.10;;;4.15;;
35128;SDS011;21301;43.626;10.580;2022-11-12T05:56:17;8.43;;;4.53;;
35128;SDS011;21301;43.626;10.580;2022-11-12T05:59:02;9.73;;;4.20;;
35128;SDS011;21301;43.626;10.580;2022-11-12T06:01:48;10.10;;;4.97;;
35128;SDS011;21301;43.626;10.580;2022-11-12T06:04:33;11.02;;;4.50;;
35128;SDS011;21301;43.626;10.580;2022-11-12T06:07:17;7.45;;;3.75;;
35128;SDS011;21301;43.626;10.580;2022-11-12T06:10:02;6.93;;;3.15;;
35128;SDS011;21301;43.626;10.580;2022-11-12T06:12:46;7.32;;;3.20;;
35128;SDS011;21301;43.626;10.580;2022-11-12T06:15:30;6.07;;;2.97;;
35128;SDS011;21301;43.626;10.580;2022-11-12T06:18:15;7.65;;;2.80;;
35128;SDS011;21301;43.626;10.580;2022-11-12T06:21:00;5.72;;;3.45;;
35128;SDS011;21301;43.626;10.580;2022-11-12T06:24:07;7.05;;;3.70;;
35128;SDS011;21301;43.626;10.580;2022-11-12T06:26:52;6.35;;;3.25;;
35128;SDS011;21301;43.626;10.580;2022-11-12T06:32:21;5.55;;;2.63;;
35128;SDS011;21301;43.626;10.580;2022-11-12T06:35:06;7.40;;;2.75;;
35128;SDS011;21301;43.626;10.580;2022-11-12T06:37:51;5.07;;;2.40;;
35128;SDS011;21301;43.626;10.580;2022-11-12T06:40:35;5.70;;;2.63;;
35128;SDS011;21301;43.626;10.580;2022-11-12T06:43:19;6.65;;;2.35;;
35128;SDS011;21301;43.626;10.580;2022-11-12T06:48:49;5.93;;;2.40;;
35128;SDS011;21301;43.626;10.580;2022-11-12T06:51:33;5.05;;;2.50;;
35128;SDS011;21301;43.626;10.580;2022-11-12T06:54:18;8.73;;;3.17;;
35128;SDS011;21301;43.626;10.580;2022-11-12T06:57:02;4.75;;;2.30;;
35128;SDS011;21301;43.626;10.580;2022-11-12T06:59:47;7.70;;;3.20;;
35128;SDS011;21301;43.626;10.580;2022-11-12T07:02:31;6.25;;;3.05;;
35128;SDS011;21301;43.626;10.580;2022-11-12T07:05:15;8.00;;;3.80;;
35128;SDS011;21301;43.626;10.580;2022-11-12T07:07:59;5.20;;;2.47;;
35128;SDS011;21301;43.626;10.580;2022-11-12T07:10:43;7.90;;;3.28;;
35128;SDS011;21301;43.626;10.580;2022-11-12T07:13:31;6.50;;;3.58;;
35128;SDS011;21301;43.626;10.580;2022-11-12T07:16:16;7.43;;;3.60;;
35128;SDS011;21301;43.626;10.580;2022-11-12T07:19:01;8.73;;;3.08;;
35128;SDS011;21301;43.626;10.580;2022-11-12T07:21:46;6.32;;;2.88;;
35128;SDS011;21301;43.626;10.580;2022-11-12T07:24:30;8.27;;;3.33;;
35128;SDS011;21301;43.626;10.580;2022-11-12T07:27:14;14.18;;;4.80;;
35128;SDS011;21301;43.626;10.580;2022-11-12T07:29:58;10.02;;;4.85;;
35128;SDS011;21301;43.626;10.580;2022-11-12T07:32:42;15.05;;;4.93;;
35128;SDS011;21301;43.626;10.580;2022-11-12T07:35:26;9.25;;;3.97;;
35128;SDS011;21301;43.626;10.580;2022-11-12T07:38:11;10.15;;;4.18;;
35128;SDS011;21301;43.626;10.580;2022-11-12T07:41:28;10.15;;;4.18;;
35128;SDS011;21301;43.626;10.580;2022-11-12T07:44:06;7.00;;;2.50;;
35128;SDS011;21301;43.626;10.580;2022-11-12T07:46:50;7.35;;;2.75;;
35128;SDS011;21301;43.626;10.580;2022-11-12T07:49:34;10.77;;;2.53;;
35128;SDS011;21301;43.626;10.580;2022-11-12T07:52:18;5.80;;;2.72;;
35128;SDS011;21301;43.626;10.580;2022-11-12T07:55:03;7.57;;;2.45;;
35128;SDS011;21301;43.626;10.580;2022-11-12T07:57:47;10.02;;;2.97;;
35128;SDS011;21301;43.626;10.580;2022-11-12T08:00:31;5.40;;;2.65;;
35128;SDS011;21301;43.626;10.580;2022-11-12T08:03:15;8.65;;;2.25;;
35128;SDS011;21301;43.626;10.580;2022-11-12T08:06:06;7.70;;;2.75;;
35128;SDS011;21301;43.626;10.580;2022-11-12T08:08:51;8.38;;;2.92;;
35128;SDS011;21301;43.626;10.580;2022-11-12T08:11:39;5.03;;;2.03;;
35128;SDS011;21301;43.626;10.580;2022-11-12T08:14:24;6.20;;;2.22;;
35128;SDS011;21301;43.626;10.580;2022-11-12T08:17:08;3.58;;;1.80;;
35128;SDS011;21301;43.626;10.580;2022-11-12T08:19:53;8.25;;;2.17;;
35128;SDS011;21301;43.626;10.580;2022-11-12T08:22:38;4.88;;;1.77;;
35128;SDS011;21301;43.626;10.580;2022-11-12T08:25:22;4.47;;;2.17;;
35128;SDS011;21301;43.626;10.580;2022-11-12T08:28:07;7.72;;;1.77;;
35128;SDS011;21301;43.626;10.580;2022-11-12T08:30:51;5.40;;;2.20;;
35128;SDS011;21301;43.626;10.580;2022-11-12T08:33:36;4.68;;;1.80;;
35128;SDS011;21301;43.626;10.580;2022-11-12T08:36:20;5.00;;;2.38;;
35128;SDS011;21301;43.626;10.580;2022-11-12T08:39:05;5.80;;;2.08;;
35128;SDS011;21301;43.626;10.580;2022-11-12T08:41:50;5.85;;;2.13;;
35128;SDS011;21301;43.626;10.580;2022-11-12T08:44:34;5.60;;;2.42;;
35128;SDS011;21301;43.626;10.580;2022-11-12T08:47:19;11.23;;;3.35;;
35128;SDS011;21301;43.626;10.580;2022-11-12T08:50:03;7.00;;;4.25;;
35128;SDS011;21301;43.626;10.580;2022-11-12T08:52:48;6.43;;;3.17;;
35128;SDS011;21301;43.626;10.580;2022-11-12T08:55:32;6.45;;;3.15;;
35128;SDS011;21301;43.626;10.580;2022-11-12T08:58:17;6.45;;;3.90;;
35128;SDS011;21301;43.626;10.580;2022-11-12T09:01:05;8.18;;;4.05;;
35128;SDS011;21301;43.626;10.580;2022-11-12T09:03:50;7.88;;;3.28;;
35128;SDS011;21301;43.626;10.580;2022-11-12T09:06:34;10.13;;;3.95;;
35128;SDS011;21301;43.626;10.580;2022-11-12T09:09:18;13.43;;;4.43;;
35128;SDS011;21301;43.626;10.580;2022-11-12T09:12:02;6.53;;;3.90;;
35128;SDS011;21301;43.626;10.580;2022-11-12T09:14:47;8.43;;;3.85;;
35128;SDS011;21301;43.626;10.580;2022-11-12T09:17:31;7.55;;;3.92;;
35128;SDS011;21301;43.626;10.580;2022-11-12T09:20:18;13.45;;;4.50;;
35128;SDS011;21301;43.626;10.580;2022-11-12T09:23:03;6.30;;;3.38;;
35128;SDS011;21301;43.626;10.580;2022-11-12T09:25:54;6.13;;;3.45;;
35128;SDS011;21301;43.626;10.580;2022-11-12T09:28:40;6.95;;;3.67;;
35128;SDS011;21301;43.626;10.580;2022-11-12T09:31:24;9.65;;;3.67;;
35128;SDS011;21301;43.626;10.580;2022-11-12T09:34:08;12.20;;;4.30;;
35128;SDS011;21301;43.626;10.580;2022-11-12T09:36:53;12.68;;;5.75;;
35128;SDS011;21301;43.626;10.580;2022-11-12T09:39:38;32.30;;;17.63;;
35128;SDS011;21301;43.626;10.580;2022-11-12T09:42:23;11.80;;;4.70;;
35128;SDS011;21301;43.626;10.580;2022-11-12T09:48:05;11.23;;;4.53;;
35128;SDS011;21301;43.626;10.580;2022-11-12T09:50:57;9.27;;;4.93;;
35128;SDS011;21301;43.626;10.580;2022-11-12T09:53:51;10.20;;;4.68;;
35128;SDS011;21301;43.626;10.580;2022-11-12T09:56:38;8.45;;;4.40;;
35128;SDS011;21301;43.626;10.580;2022-11-12T09:59:25;11.48;;;4.43;;
35128;SDS011;21301;43.626;10.580;2022-11-12T10:02:20;10.10;;;4.15;;
35128;SDS011;21301;43.626;10.580;2022-11-12T10:05:31;8.73;;;4.25;;
35128;SDS011;21301;43.626;10.580;2022-11-12T10:08:24;10.15;;;4.68;;
35128;SDS011;21301;43.626;10.580;2022-11-12T10:11:28;8.52;;;3.88;;
35128;SDS011;21301;43.626;10.580;2022-11-12T10:14:47;9.57;;;4.50;;
35128;SDS011;21301;43.626;10.580;2022-11-12T10:20:54;11.00;;;4.88;;
35128;SDS011;21301;43.626;10.580;2022-11-12T10:23:45;10.05;;;5.50;;
35128;SDS011;21301;43.626;10.580;2022-11-12T10:26:31;7.78;;;4.30;;
35128;SDS011;21301;43.626;10.580;2022-11-12T10:29:21;14.15;;;4.18;;
35128;SDS011;21301;43.626;10.580;2022-11-12T10:32:18;9.20;;;4.93;;
35128;SDS011;21301;43.626;10.580;2022-11-12T10:35:02;7.03;;;3.97;;
35128;SDS011;21301;43.626;10.580;2022-11-12T10:37:52;7.70;;;3.70;;
35128;SDS011;21301;43.626;10.580;2022-11-12T10:40:47;7.18;;;4.03;;
35128;SDS011;21301;43.626;10.580;2022-11-12T10:43:31;8.15;;;4.20;;
35128;SDS011;21301;43.626;10.580;2022-11-12T10:46:20;7.43;;;3.70;;
35128;SDS011;21301;43.626;10.580;2022-11-12T10:51:57;10.20;;;5.75;;
35128;SDS011;21301;43.626;10.580;2022-11-12T10:54:42;7.57;;;3.92;;
35128;SDS011;21301;43.626;10.580;2022-11-12T10:57:26;9.27;;;4.75;;
35128;SDS011;21301;43.626;10.580;2022-11-12T11:03:05;10.23;;;5.68;;
35128;SDS011;21301;43.626;10.580;2022-11-12T11:06:06;9.48;;;5.70;;
35128;SDS011;21301;43.626;10.580;2022-11-12T11:11:55;8.32;;;5.18;;
35128;SDS011;21301;43.626;10.580;2022-11-12T11:14:40;9.18;;;4.93;;
35128;SDS011;21301;43.626;10.580;2022-11-12T11:17:27;13.95;;;5.05;;
35128;SDS011;21301;43.626;10.580;2022-11-12T11:23:21;9.95;;;4.47;;
35128;SDS011;21301;43.626;10.580;2022-11-12T11:29:29;13.40;;;5.68;;
35128;SDS011;21301;43.626;10.580;2022-11-12T11:32:41;13.05;;;4.70;;
35128;SDS011;21301;43.626;10.580;2022-11-12T11:35:35;9.75;;;5.20;;
35128;SDS011;21301;43.626;10.580;2022-11-12T11:38:55;15.23;;;5.15;;
35128;SDS011;21301;43.626;10.580;2022-11-12T11:47:53;9.02;;;5.53;;
35128;SDS011;21301;43.626;10.580;2022-11-12T11:54:01;10.18;;;5.15;;
35128;SDS011;21301;43.626;10.580;2022-11-12T11:56:57;11.60;;;7.47;;
35128;SDS011;21301;43.626;10.580;2022-11-12T12:06:16;15.27;;;6.90;;
35128;SDS011;21301;43.626;10.580;2022-11-12T12:09:21;8.40;;;5.55;;
35128;SDS011;21301;43.626;10.580;2022-11-12T12:15:33;11.00;;;6.15;;
35128;SDS011;21301;43.626;10.580;2022-11-12T12:21:51;9.57;;;5.35;;
35128;SDS011;21301;43.626;10.580;2022-11-12T12:24:41;9.32;;;5.78;;
35128;SDS011;21301;43.626;10.580;2022-11-12T12:27:38;19.30;;;13.10;;
35128;SDS011;21301;43.626;10.580;2022-11-12T12:30:33;15.93;;;11.90;;
35128;SDS011;21301;43.626;10.580;2022-11-12T12:36:16;14.73;;;9.13;;
35128;SDS011;21301;43.626;10.580;2022-11-12T12:42:31;13.32;;;7.68;;
35128;SDS011;21301;43.626;10.580;2022-11-12T12:45:39;10.05;;;6.43;;
35128;SDS011;21301;43.626;10.580;2022-11-12T12:48:29;11.40;;;6.20;;
35128;SDS011;21301;43.626;10.580;2022-11-12T12:51:19;10.15;;;5.50;;
35128;SDS011;21301;43.626;10.580;2022-11-12T12:54:31;8.93;;;5.18;;
35128;SDS011;21301;43.626;10.580;2022-11-12T13:00:26;11.40;;;6.50;;
35128;SDS011;21301;43.626;10.580;2022-11-12T13:06:27;9.65;;;6.18;;
35128;SDS011;21301;43.626;10.580;2022-11-12T13:12:01;17.05;;;8.93;;
35128;SDS011;21301;43.626;10.580;2022-11-12T13:21:20;13.60;;;8.30;;
35128;SDS011;21301;43.626;10.580;2022-11-12T13:24:07;16.88;;;9.50;;
35128;SDS011;21301;43.626;10.580;2022-11-12T13:26:58;14.63;;;8.20;;
35128;SDS011;21301;43.626;10.580;2022-11-12T13:29:44;19.83;;;11.15;;
35128;SDS011;21301;43.626;10.580;2022-11-12T13:38:20;14.32;;;8.57;;
35128;SDS011;21301;43.626;10.580;2022-11-12T13:44:02;12.57;;;8.18;;
35128;SDS011;21301;43.626;10.580;2022-11-12T13:46:48;11.05;;;8.00;;
35128;SDS011;21301;43.626;10.580;2022-11-12T13:49:34;10.23;;;6.93;;
35128;SDS011;21301;43.626;10.580;2022-11-12T13:52:20;11.00;;;7.50;;
35128;SDS011;21301;43.626;10.580;2022-11-12T13:55:06;13.55;;;8.10;;
35128;SDS011;21301;43.626;10.580;2022-11-12T13:57:58;13.65;;;7.90;;
35128;SDS011;21301;43.626;10.580;2022-11-12T14:00:49;11.13;;;6.55;;
35128;SDS011;21301;43.626;10.580;2022-11-12T14:03:46;14.80;;;7.22;;
35128;SDS011;21301;43.626;10.580;2022-11-12T14:20:50;14.43;;;7.80;;
35128;SDS011;21301;43.626;10.580;2022-11-12T14:23:36;11.30;;;7.25;;
35128;SDS011;21301;43.626;10.580;2022-11-12T14:26:37;11.45;;;6.13;;
35128;SDS011;21301;43.626;10.580;2022-11-12T14:29:26;15.75;;;7.00;;
35128;SDS011;21301;43.626;10.580;2022-11-12T14:32:10;13.30;;;5.63;;
35128;SDS011;21301;43.626;10.580;2022-11-12T14:34:54;12.10;;;7.38;;
35128;SDS011;21301;43.626;10.580;2022-11-12T14:37:38;17.83;;;8.88;;
35128;SDS011;21301;43.626;10.580;2022-11-12T14:40:24;14.80;;;8.50;;
35128;SDS011;21301;43.626;10.580;2022-11-12T14:46:23;16.73;;;9.85;;
35128;SDS011;21301;43.626;10.580;2022-11-12T14:52:06;19.27;;;12.18;;
35128;SDS011;21301;43.626;10.580;2022-11-12T14:54:59;18.50;;;9.63;;
35128;SDS011;21301;43.626;10.580;2022-11-12T14:57:54;11.63;;;7.57;;
35128;SDS011;21301;43.626;10.580;2022-11-12T15:00:42;14.43;;;8.52;;
35128;SDS011;21301;43.626;10.580;2022-11-12T15:03:30;14.40;;;8.70;;
35128;SDS011;21301;43.626;10.580;2022-11-12T15:06:27;16.63;;;8.95;;
35128;SDS011;21301;43.626;10.580;2022-11-12T15:09:16;16.02;;;9.07;;
35128;SDS011;21301;43.626;10.580;2022-11-12T15:12:06;16.50;;;9.40;;
35128;SDS011;21301;43.626;10.580;2022-11-12T15:15:02;23.27;;;13.63;;
35128;SDS011;21301;43.626;10.580;2022-11-12T15:17:59;16.80;;;10.73;;
35128;SDS011;21301;43.626;10.580;2022-11-12T15:21:00;19.83;;;11.05;;
35128;SDS011;21301;43.626;10.580;2022-11-12T15:26:54;32.13;;;19.58;;
35128;SDS011;21301;43.626;10.580;2022-11-12T15:29:40;22.55;;;15.45;;
35128;SDS011;21301;43.626;10.580;2022-11-12T15:38:05;21.55;;;11.48;;
35128;SDS011;21301;43.626;10.580;2022-11-12T15:40:54;15.55;;;10.65;;
35128;SDS011;21301;43.626;10.580;2022-11-12T15:43:39;29.05;;;20.20;;
35128;SDS011;21301;43.626;10.580;2022-11-12T15:46:25;21.88;;;13.63;;
35128;SDS011;21301;43.626;10.580;2022-11-12T15:49:11;20.77;;;10.77;;
35128;SDS011;21301;43.626;10.580;2022-11-12T15:51:56;17.05;;;10.73;;
35128;SDS011;21301;43.626;10.580;2022-11-12T15:54:40;18.45;;;10.45;;
35128;SDS011;21301;43.626;10.580;2022-11-12T15:57:25;17.45;;;11.13;;
35128;SDS011;21301;43.626;10.580;2022-11-12T16:00:15;16.25;;;10.05;;
35128;SDS011;21301;43.626;10.580;2022-11-12T16:03:14;17.00;;;9.38;;
35128;SDS011;21301;43.626;10.580;2022-11-12T16:06:03;22.48;;;11.88;;
35128;SDS011;21301;43.626;10.580;2022-11-12T16:08:48;24.20;;;14.38;;
35128;SDS011;21301;43.626;10.580;2022-11-12T16:11:33;22.92;;;11.90;;
35128;SDS011;21301;43.626;10.580;2022-11-12T16:14:20;20.23;;;13.95;;
35128;SDS011;21301;43.626;10.580;2022-11-12T16:17:12;30.20;;;17.30;;
35128;SDS011;21301;43.626;10.580;2022-11-12T16:19:57;28.38;;;20.10;;
35128;SDS011;21301;43.626;10.580;2022-11-12T16:22:43;21.17;;;15.85;;
35128;SDS011;21301;43.626;10.580;2022-11-12T16:25:27;20.88;;;14.18;;
35128;SDS011;21301;43.626;10.580;2022-11-12T16:28:14;30.52;;;15.95;;
35128;SDS011;21301;43.626;10.580;2022-11-12T16:31:00;18.45;;;12.52;;
35128;SDS011;21301;43.626;10.580;2022-11-12T16:33:47;21.23;;;12.27;;
35128;SDS011;21301;43.626;10.580;2022-11-12T16:36:32;17.80;;;11.93;;
35128;SDS011;21301;43.626;10.580;2022-11-12T16:39:16;25.77;;;13.77;;
35128;SDS011;21301;43.626;10.580;2022-11-12T16:42:00;18.48;;;13.23;;
35128;SDS011;21301;43.626;10.580;2022-11-12T16:44:45;18.60;;;12.27;;
35128;SDS011;21301;43.626;10.580;2022-11-12T16:47:29;26.10;;;12.35;;
35128;SDS011;21301;43.626;10.580;2022-11-12T16:50:15;20.95;;;13.10;;
35128;SDS011;21301;43.626;10.580;2022-11-12T16:53:01;19.52;;;12.57;;
35128;SDS011;21301;43.626;10.580;2022-11-12T16:55:45;21.13;;;15.05;;
35128;SDS011;21301;43.626;10.580;2022-11-12T16:58:29;26.98;;;15.13;;
35128;SDS011;21301;43.626;10.580;2022-11-12T17:01:23;24.75;;;15.05;;
35128;SDS011;21301;43.626;10.580;2022-11-12T17:04:10;26.63;;;16.83;;
35128;SDS011;21301;43.626;10.580;2022-11-12T17:06:54;29.55;;;19.45;;
35128;SDS011;21301;43.626;10.580;2022-11-12T17:09:38;32.65;;;21.27;;
35128;SDS011;21301;43.626;10.580;2022-11-12T17:12:22;45.33;;;29.30;;
35128;SDS011;21301;43.626;10.580;2022-11-12T17:15:07;36.53;;;23.52;;
35128;SDS011;21301;43.626;10.580;2022-11-12T17:17:52;38.80;;;22.40;;
35128;SDS011;21301;43.626;10.580;2022-11-12T17:20:37;28.48;;;19.55;;
35128;SDS011;21301;43.626;10.580;2022-11-12T17:23:22;37.70;;;22.25;;
35128;SDS011;21301;43.626;10.580;2022-11-12T17:26:08;40.13;;;22.08;;
35128;SDS011;21301;43.626;10.580;2022-11-12T17:28:53;30.35;;;19.33;;
35128;SDS011;21301;43.626;10.580;2022-11-12T17:31:38;27.77;;;17.38;;
35128;SDS011;21301;43.626;10.580;2022-11-12T17:34:22;29.20;;;18.73;;
35128;SDS011;21301;43.626;10.580;2022-11-12T17:37:06;22.00;;;16.33;;
35128;SDS011;21301;43.626;10.580;2022-11-12T17:39:51;24.90;;;15.95;;
35128;SDS011;21301;43.626;10.580;2022-11-12T17:42:35;22.77;;;13.10;;
35128;SDS011;21301;43.626;10.580;2022-11-12T17:45:19;21.52;;;13.82;;
35128;SDS011;21301;43.626;10.580;2022-11-12T17:48:04;25.88;;;13.80;;
35128;SDS011;21301;43.626;10.580;2022-11-12T17:50:50;25.38;;;16.23;;
35128;SDS011;21301;43.626;10.580;2022-11-12T17:53:35;22.52;;;16.45;;
35128;SDS011;21301;43.626;10.580;2022-11-12T17:56:21;32.00;;;16.08;;
35128;SDS011;21301;43.626;10.580;2022-11-12T17:59:06;24.92;;;15.23;;
35128;SDS011;21301;43.626;10.580;2022-11-12T18:01:51;23.05;;;13.30;;
35128;SDS011;21301;43.626;10.580;2022-11-12T18:04:35;23.48;;;14.05;;
35128;SDS011;21301;43.626;10.580;2022-11-12T18:07:20;24.35;;;15.70;;
35128;SDS011;21301;43.626;10.580;2022-11-12T18:10:05;20.10;;;14.05;;
35128;SDS011;21301;43.626;10.580;2022-11-12T18:12:50;17.92;;;11.25;;
35128;SDS011;21301;43.626;10.580;2022-11-12T18:15:35;22.90;;;14.27;;
35128;SDS011;21301;43.626;10.580;2022-11-12T18:18:19;19.92;;;14.50;;
35128;SDS011;21301;43.626;10.580;2022-11-12T18:21:03;19.45;;;13.40;;
35128;SDS011;21301;43.626;10.580;2022-11-12T18:23:48;24.33;;;15.30;;
35128;SDS011;21301;43.626;10.580;2022-11-12T18:26:32;24.77;;;14.73;;